Terminal Aerodrome Forecast
Issued by NWS

Home | Current Version | Previous Version | Text Only | Print | Product List | Glossary On
Versions: 1 2 3 4 5 6 7 8 9 10 11 12 13 14
000
FTUS44 KTSA 251100
TAFXNA
TAF
KXNA 251140Z 2512/2612 21014G20KT P6SM SKC
     FM251500 24017G25KT P6SM SKC
     FM260000 30007KT P6SM SCT070
     FM260300 35006KT P6SM SCT070
     FM260800 03008KT P6SM BKN012=

USA.gov is the U.S. government's official web portal to all federal, state and local government web resources and services.